Terminal Aerodrome Forecast
Issued by NWS Sterling, VA

Current Version | Previous Version | Text Only | Print | Product List | Glossary Off
Versions: 1 2 3 4 5 6 7 8 9 10 11 12 13 14 15 16 17 18 19 20

000
FTUS41 KLWX 241726
TAFMRB
TAF
KMRB 241726Z 2418/2518 04008KT P6SM -RA OVC035
     FM242000 06008KT P6SM -RA OVC025
     FM242300 06007KT 5SM -RA OVC015
     FM250000 05006KT 5SM -RA OVC008
     FM251300 04008KT 3SM -RA OVC003
     FM251600 04009KT 5SM -RA OVC008=

USA.gov is the U.S. government's official web portal to all federal, state and local government web resources and services.